createdAt,value
2022-10-09T00:01:24.700Z,7.93
2022-10-09T00:03:56.087Z,8.97
2022-10-09T00:06:26.228Z,8.03
2022-10-09T00:08:54.516Z,10.00
2022-10-09T00:11:26.140Z,8.43
2022-10-09T00:13:55.444Z,7.77
2022-10-09T00:16:24.180Z,8.17
2022-10-09T00:18:52.816Z,7.80
2022-10-09T00:21:22.782Z,8.30
2022-10-09T00:23:51.868Z,9.27
2022-10-09T00:26:20.569Z,9.90
2022-10-09T00:28:50.460Z,9.40
2022-10-09T00:31:19.226Z,8.00
2022-10-09T00:33:48.016Z,8.03
2022-10-09T00:36:18.217Z,7.90
2022-10-09T00:38:46.777Z,7.27
2022-10-09T00:41:17.211Z,10.87
2022-10-09T00:43:48.062Z,7.20
2022-10-09T00:46:33.611Z,9.77
2022-10-09T00:49:16.344Z,7.37
2022-10-09T00:51:46.876Z,9.33
2022-10-09T00:54:17.118Z,6.20
2022-10-09T00:56:45.418Z,8.67
2022-10-09T00:59:14.342Z,9.30
2022-10-09T01:01:44.052Z,6.60
2022-10-09T01:04:13.216Z,9.27
2022-10-09T01:06:56.679Z,8.90
2022-10-09T01:09:32.238Z,8.80
2022-10-09T01:12:07.758Z,6.57
2022-10-09T01:14:43.424Z,6.70
2022-10-09T01:17:20.441Z,12.53
2022-10-09T01:20:07.760Z,9.23
2022-10-09T01:22:55.194Z,13.40
2022-10-09T01:25:32.265Z,12.57
2022-10-09T01:28:04.402Z,10.73
2022-10-09T01:30:34.282Z,9.87
2022-10-09T01:33:03.154Z,10.23
2022-10-09T01:35:32.081Z,12.63
2022-10-09T01:38:02.447Z,13.13
2022-10-09T01:40:30.853Z,11.60
2022-10-09T01:43:01.117Z,15.60
2022-10-09T01:45:38.626Z,12.57
2022-10-09T01:48:07.589Z,11.17
2022-10-09T01:50:41.767Z,12.83
2022-10-09T01:53:13.008Z,9.90
2022-10-09T01:55:50.246Z,9.43
2022-10-09T01:58:24.573Z,10.47
2022-10-09T02:01:05.349Z,14.60
2022-10-09T02:03:36.580Z,11.43
2022-10-09T02:06:07.097Z,10.53
2022-10-09T02:08:37.439Z,13.83
2022-10-09T02:11:06.749Z,13.30
2022-10-09T02:13:37.067Z,13.47
2022-10-09T02:16:13.823Z,15.10
2022-10-09T02:18:45.450Z,13.00
2022-10-09T02:21:16.819Z,11.43
2022-10-09T02:23:46.869Z,14.57
2022-10-09T02:26:15.418Z,13.30
2022-10-09T02:28:46.178Z,12.23
2022-10-09T02:31:19.819Z,11.70
2022-10-09T02:33:55.067Z,15.87
2022-10-09T02:36:23.298Z,12.77
2022-10-09T02:38:51.479Z,16.00
2022-10-09T02:41:19.731Z,11.43
2022-10-09T02:43:49.449Z,15.53
2022-10-09T02:46:17.776Z,14.50
2022-10-09T02:48:46.418Z,16.60
2022-10-09T02:51:14.863Z,13.57
2022-10-09T02:53:43.110Z,11.57
2022-10-09T02:56:11.683Z,14.53
2022-10-09T02:58:40.938Z,14.77
2022-10-09T03:01:10.615Z,14.37
2022-10-09T03:03:39.047Z,14.10
2022-10-09T03:06:09.703Z,11.83
2022-10-09T03:08:38.925Z,15.40
2022-10-09T03:11:07.685Z,15.43
2022-10-09T03:13:35.998Z,14.30
2022-10-09T03:16:05.275Z,12.30
2022-10-09T03:18:35.308Z,13.50
2022-10-09T03:21:06.723Z,15.10
2022-10-09T03:23:35.034Z,15.47
2022-10-09T03:26:05.129Z,11.13
2022-10-09T03:28:36.271Z,13.60
2022-10-09T03:31:04.816Z,18.57
2022-10-09T03:33:35.830Z,13.57
2022-10-09T03:36:05.284Z,18.00
2022-10-09T03:38:33.603Z,16.87
2022-10-09T03:41:03.338Z,14.60
2022-10-09T03:43:31.623Z,16.63
2022-10-09T03:46:01.162Z,13.70
2022-10-09T03:48:29.619Z,13.83
2022-10-09T03:50:59.185Z,14.50
2022-10-09T03:53:27.774Z,13.20
2022-10-09T03:55:56.149Z,16.93
2022-10-09T03:58:24.931Z,15.27
2022-10-09T04:00:54.245Z,24.67
2022-10-09T04:03:22.776Z,16.47
2022-10-09T04:05:51.140Z,21.30
2022-10-09T04:08:20.886Z,18.63
2022-10-09T04:10:49.202Z,40.37
2022-10-09T04:13:17.395Z,16.17
2022-10-09T04:15:51.854Z,15.30
2022-10-09T04:18:20.330Z,11.83
2022-10-09T04:20:51.091Z,12.73
2022-10-09T04:23:27.722Z,9.50
2022-10-09T04:25:56.885Z,10.83
2022-10-09T04:28:25.483Z,10.73
2022-10-09T04:30:54.011Z,10.57
2022-10-09T04:33:22.256Z,13.20
2022-10-09T04:35:53.673Z,9.47
2022-10-09T04:38:24.740Z,7.27
2022-10-09T04:40:59.473Z,13.03
2022-10-09T04:43:27.856Z,8.93
2022-10-09T04:45:56.605Z,13.00
2022-10-09T04:48:24.899Z,10.60
2022-10-09T04:50:53.116Z,12.23
2022-10-09T04:53:22.807Z,11.83
2022-10-09T04:55:51.020Z,12.13
2022-10-09T04:58:19.311Z,11.07
2022-10-09T05:00:47.884Z,10.47
2022-10-09T05:03:16.273Z,9.70
2022-10-09T05:05:44.559Z,12.80
2022-10-09T05:08:12.758Z,11.23
2022-10-09T05:10:42.503Z,16.83
2022-10-09T05:13:10.803Z,9.70
2022-10-09T05:15:39.153Z,10.50
2022-10-09T05:18:07.408Z,8.77
2022-10-09T05:20:35.966Z,11.70
2022-10-09T05:23:04.192Z,9.83
2022-10-09T05:25:32.404Z,11.33
2022-10-09T05:28:02.574Z,10.13
2022-10-09T05:30:30.940Z,11.87
2022-10-09T05:32:59.201Z,11.93
2022-10-09T05:35:27.423Z,12.77
2022-10-09T05:37:55.613Z,15.67
2022-10-09T05:40:28.408Z,13.13
2022-10-09T05:42:57.312Z,11.47
2022-10-09T05:45:26.947Z,12.77
2022-10-09T05:47:55.304Z,11.70
2022-10-09T05:50:23.543Z,15.53
2022-10-09T05:52:52.044Z,13.73
2022-10-09T05:55:20.406Z,10.50
2022-10-09T05:57:50.660Z,13.00
2022-10-09T06:00:19.084Z,12.17
2022-10-09T06:02:48.930Z,12.70
2022-10-09T06:05:17.553Z,13.87
2022-10-09T06:07:47.431Z,14.30
2022-10-09T06:10:15.912Z,11.17
2022-10-09T06:12:44.166Z,12.13
2022-10-09T06:15:12.443Z,17.90
2022-10-09T06:17:40.827Z,13.47
2022-10-09T06:20:10.950Z,14.20
2022-10-09T06:22:39.189Z,12.00
2022-10-09T06:25:08.334Z,10.33
2022-10-09T06:27:36.530Z,10.27
2022-10-09T06:30:05.166Z,11.30
2022-10-09T06:32:33.385Z,10.33
2022-10-09T06:35:01.445Z,6.13
2022-10-09T06:37:31.002Z,8.20
2022-10-09T06:39:59.259Z,7.10
2022-10-09T06:42:27.497Z,7.97
2022-10-09T06:44:59.115Z,8.07
2022-10-09T06:47:27.356Z,8.80
2022-10-09T06:49:55.583Z,9.50
2022-10-09T06:52:23.838Z,8.30
2022-10-09T06:54:53.463Z,6.80
2022-10-09T06:57:21.711Z,12.40
2022-10-09T06:59:51.892Z,6.90
2022-10-09T07:02:20.244Z,6.90
2022-10-09T07:04:48.572Z,9.50
2022-10-09T07:07:16.761Z,7.37
2022-10-09T07:09:45.147Z,8.53
2022-10-09T07:12:14.814Z,10.43
2022-10-09T07:14:43.092Z,11.83
2022-10-09T07:17:11.368Z,6.83
2022-10-09T07:19:39.705Z,7.93
2022-10-09T07:22:11.351Z,11.40
2022-10-09T07:24:39.614Z,7.33
2022-10-09T07:27:07.908Z,11.30
2022-10-09T07:29:38.120Z,9.03
2022-10-09T07:32:10.366Z,15.57
2022-10-09T07:34:38.863Z,10.30
2022-10-09T07:37:07.111Z,9.47
2022-10-09T07:39:36.405Z,9.20
2022-10-09T07:42:05.110Z,7.37
2022-10-09T07:44:33.356Z,6.50
2022-10-09T07:47:02.998Z,10.20
2022-10-09T07:49:31.294Z,5.63
2022-10-09T07:51:59.760Z,7.03
2022-10-09T07:54:28.020Z,8.20
2022-10-09T07:56:56.321Z,6.97
2022-10-09T07:59:24.681Z,12.57
2022-10-09T08:01:52.980Z,10.03
2022-10-09T08:04:22.912Z,10.40
2022-10-09T08:06:51.218Z,8.80
2022-10-09T08:09:19.977Z,9.70
2022-10-09T08:11:48.269Z,9.73
2022-10-09T08:14:19.305Z,7.13
2022-10-09T08:16:48.571Z,25.43
2022-10-09T08:19:16.880Z,10.83
2022-10-09T08:21:46.499Z,15.37
2022-10-09T08:24:14.814Z,16.37
2022-10-09T08:26:44.203Z,16.47
2022-10-09T08:29:13.955Z,22.98
2022-10-09T08:31:42.656Z,18.10
2022-10-09T08:34:12.087Z,13.75
2022-10-09T08:36:40.350Z,18.30
2022-10-09T08:39:10.426Z,16.98
2022-10-09T08:41:45.741Z,25.00
2022-10-09T08:44:21.499Z,20.23
2022-10-09T08:46:57.273Z,21.00
2022-10-09T08:49:30.666Z,14.82
2022-10-09T08:52:06.299Z,15.82
2022-10-09T08:54:39.213Z,12.63
2022-10-09T08:57:16.761Z,10.18
2022-10-09T08:59:45.807Z,11.60
2022-10-09T09:02:30.089Z,6.65
2022-10-09T09:05:10.230Z,9.65
2022-10-09T09:07:45.345Z,5.03
2022-10-09T09:10:22.543Z,10.02
2022-10-09T09:12:57.211Z,5.60
2022-10-09T09:15:42.869Z,7.60
2022-10-09T09:18:24.463Z,6.20
2022-10-09T09:20:54.227Z,4.22
2022-10-09T09:23:27.742Z,5.05
2022-10-09T09:25:59.436Z,7.18
2022-10-09T09:28:30.467Z,8.27
2022-10-09T09:31:03.342Z,5.07
2022-10-09T09:33:44.637Z,3.47
2022-10-09T09:36:21.065Z,2.38
2022-10-09T09:39:26.098Z,4.53
2022-10-09T09:41:41.544Z,4.78
2022-10-09T09:44:12.753Z,4.90
2022-10-09T09:46:42.635Z,6.43
2022-10-09T09:49:18.312Z,6.47
2022-10-09T09:51:47.909Z,1.98
2022-10-09T09:54:19.610Z,3.95
2022-10-09T09:59:40.237Z,2.20
2022-10-09T10:02:14.294Z,7.50
2022-10-09T10:04:51.863Z,4.40
2022-10-09T10:07:30.788Z,4.93
2022-10-09T10:10:15.787Z,3.65
2022-10-09T10:12:48.248Z,8.43
2022-10-09T10:15:22.830Z,6.82
2022-10-09T10:17:56.892Z,5.57
2022-10-09T10:20:25.489Z,6.53
2022-10-09T10:22:55.862Z,9.88
2022-10-09T10:25:28.514Z,3.13
2022-10-09T10:28:01.644Z,3.08
2022-10-09T10:30:30.984Z,6.38
2022-10-09T10:33:04.879Z,5.80
2022-10-09T10:35:36.795Z,4.35
2022-10-09T10:38:13.261Z,7.72
2022-10-09T10:40:47.336Z,3.67
2022-10-09T10:43:30.226Z,5.07
2022-10-09T10:46:03.652Z,3.17
2022-10-09T10:48:34.923Z,2.17
2022-10-09T10:51:10.066Z,3.85
2022-10-09T10:53:50.840Z,1.83
2022-10-09T10:56:26.245Z,3.50
2022-10-09T10:59:07.842Z,3.92
2022-10-09T11:01:42.528Z,5.10
2022-10-09T11:04:29.617Z,2.70
2022-10-09T11:07:06.828Z,2.85
2022-10-09T11:09:42.950Z,2.17
2022-10-09T11:12:24.860Z,3.00
2022-10-09T11:15:16.888Z,2.15
2022-10-09T11:17:51.142Z,2.92
2022-10-09T11:20:43.018Z,3.60
2022-10-09T11:23:18.328Z,3.63
2022-10-09T11:25:55.130Z,6.35
2022-10-09T11:28:26.672Z,4.93
2022-10-09T11:31:09.542Z,5.07
2022-10-09T11:33:41.967Z,2.30
2022-10-09T11:36:17.481Z,3.25
2022-10-09T11:38:48.538Z,2.85
2022-10-09T11:41:17.327Z,3.22
2022-10-09T11:44:17.844Z,4.38
2022-10-09T11:46:58.321Z,2.92
2022-10-09T11:49:38.526Z,2.90
2022-10-09T11:52:16.962Z,2.42
2022-10-09T11:54:45.417Z,2.45
2022-10-09T11:57:15.519Z,3.92
2022-10-09T11:59:44.996Z,1.27
2022-10-09T12:02:27.647Z,2.65
2022-10-09T12:04:56.830Z,2.35
2022-10-09T12:07:31.609Z,4.13
2022-10-09T12:10:04.411Z,3.35
2022-10-09T12:12:33.388Z,1.63
2022-10-09T12:15:12.287Z,3.75
2022-10-09T12:17:50.428Z,3.92
2022-10-09T12:20:21.437Z,4.13
2022-10-09T12:23:21.311Z,1.50
2022-10-09T12:25:46.579Z,2.72
2022-10-09T12:28:22.893Z,1.25
2022-10-09T12:30:52.841Z,3.67
2022-10-09T12:33:27.473Z,1.60
2022-10-09T12:36:03.668Z,1.65
2022-10-09T12:38:33.445Z,2.13
2022-10-09T12:41:05.513Z,1.30
2022-10-09T12:43:34.951Z,2.92
2022-10-09T12:46:03.339Z,3.03
2022-10-09T12:48:39.809Z,1.50
2022-10-09T12:51:16.936Z,1.45
2022-10-09T12:53:50.669Z,2.08
2022-10-09T12:56:23.687Z,2.47
2022-10-09T12:58:53.270Z,6.95
2022-10-09T13:01:22.419Z,1.50
2022-10-09T13:03:57.348Z,1.83
2022-10-09T13:06:33.544Z,3.17
2022-10-09T13:09:05.076Z,2.88
2022-10-09T13:11:37.148Z,2.63
2022-10-09T13:14:05.904Z,3.53
2022-10-09T13:16:44.687Z,4.30
2022-10-09T13:19:24.610Z,2.78
2022-10-09T13:22:20.440Z,2.13
2022-10-09T13:24:51.023Z,1.80
2022-10-09T13:27:19.919Z,3.00
2022-10-09T13:29:48.698Z,4.70
2022-10-09T13:32:18.434Z,1.83
2022-10-09T13:34:48.312Z,3.10
2022-10-09T13:37:20.034Z,1.83
2022-10-09T13:39:48.446Z,2.42
2022-10-09T13:42:17.770Z,2.55
2022-10-09T13:44:45.969Z,3.08
2022-10-09T13:47:14.249Z,3.40
2022-10-09T13:49:42.462Z,1.55
2022-10-09T13:52:12.253Z,1.85
2022-10-09T13:54:40.536Z,3.28
2022-10-09T13:57:08.811Z,2.42
2022-10-09T13:59:37.959Z,2.45
2022-10-09T14:02:06.623Z,2.53
2022-10-09T14:04:34.917Z,1.63
2022-10-09T14:07:03.148Z,1.85
2022-10-09T14:09:32.711Z,4.63
2022-10-09T14:12:01.930Z,3.45
2022-10-09T14:14:30.169Z,2.22
2022-10-09T14:16:58.580Z,2.15
2022-10-09T14:19:27.819Z,3.08
2022-10-09T14:21:56.408Z,2.28
2022-10-09T14:24:25.216Z,2.35
2022-10-09T14:26:54.833Z,3.80
2022-10-09T14:29:23.039Z,3.58
2022-10-09T14:31:51.791Z,3.17
2022-10-09T14:34:20.075Z,3.33
2022-10-09T14:36:48.868Z,2.22
2022-10-09T14:39:17.306Z,3.42
2022-10-09T14:41:45.801Z,3.85
2022-10-09T14:44:15.431Z,4.03
2022-10-09T14:46:43.658Z,4.72
2022-10-09T14:49:12.473Z,1.70
2022-10-09T14:51:42.064Z,2.28
2022-10-09T14:54:12.149Z,3.90
2022-10-09T14:56:40.745Z,2.80
2022-10-09T14:59:09.225Z,3.33
2022-10-09T15:01:38.906Z,4.28
2022-10-09T15:04:07.610Z,4.38
2022-10-09T15:06:35.958Z,4.25
2022-10-09T15:09:06.176Z,3.85
2022-10-09T15:11:36.173Z,3.85
2022-10-09T15:14:05.249Z,3.30
2022-10-09T15:16:33.460Z,3.70
2022-10-09T15:19:04.577Z,3.42
2022-10-09T15:21:34.620Z,2.70
2022-10-09T15:24:04.054Z,4.95
2022-10-09T15:26:35.649Z,2.88
2022-10-09T15:29:05.230Z,2.22
2022-10-09T15:31:35.403Z,2.70
2022-10-09T15:34:06.216Z,1.73
2022-10-09T15:36:37.582Z,3.20
2022-10-09T15:39:07.808Z,2.53
2022-10-09T15:41:38.162Z,1.90
2022-10-09T15:44:08.708Z,1.55
2022-10-09T15:46:36.938Z,2.72
2022-10-09T15:49:07.963Z,5.80
2022-10-09T15:51:36.436Z,2.63
2022-10-09T15:54:05.394Z,3.65
2022-10-09T15:56:39.503Z,1.92
2022-10-09T15:59:10.341Z,1.92
2022-10-09T16:01:38.626Z,1.48
2022-10-09T16:04:08.277Z,5.10
2022-10-09T16:06:36.554Z,7.63
2022-10-09T16:09:05.005Z,2.33
2022-10-09T16:11:34.649Z,2.03
2022-10-09T16:14:04.293Z,2.45
2022-10-09T16:16:32.637Z,5.55
2022-10-09T16:19:03.082Z,1.40
2022-10-09T16:21:32.947Z,4.20
2022-10-09T16:24:01.711Z,5.57
2022-10-09T16:26:30.788Z,5.20
2022-10-09T16:29:00.551Z,3.25
2022-10-09T16:31:31.565Z,5.05
2022-10-09T16:33:59.959Z,4.55
2022-10-09T16:36:28.993Z,3.90
2022-10-09T16:38:59.505Z,3.95
2022-10-09T16:41:27.981Z,2.83
2022-10-09T16:43:57.680Z,5.63
2022-10-09T16:46:28.426Z,3.97
2022-10-09T16:48:58.337Z,2.63
2022-10-09T16:51:28.620Z,2.92
2022-10-09T16:54:00.645Z,2.45
2022-10-09T16:56:32.809Z,1.40
2022-10-09T16:59:03.514Z,3.03
2022-10-09T17:01:32.211Z,3.22
2022-10-09T17:04:01.165Z,3.63
2022-10-09T17:06:29.457Z,3.17
2022-10-09T17:09:00.585Z,3.85
2022-10-09T17:11:30.911Z,2.25
2022-10-09T17:13:59.617Z,1.90
2022-10-09T17:16:30.320Z,1.63
2022-10-09T17:18:58.763Z,3.60
2022-10-09T17:21:30.981Z,4.38
2022-10-09T17:24:05.725Z,2.17
2022-10-09T17:26:34.437Z,2.42
2022-10-09T17:29:03.706Z,2.67
2022-10-09T17:31:32.011Z,3.95
2022-10-09T17:34:02.229Z,4.78
2022-10-09T17:36:32.289Z,5.10
2022-10-09T17:39:00.555Z,4.20
2022-10-09T17:41:31.171Z,4.80
2022-10-09T17:43:59.619Z,3.20
2022-10-09T17:46:29.444Z,4.95
2022-10-09T17:48:58.425Z,4.97
2022-10-09T17:51:28.284Z,4.35
2022-10-09T17:54:00.922Z,10.70
2022-10-09T17:56:31.699Z,1.92
2022-10-09T17:59:01.345Z,4.35
2022-10-09T18:01:30.238Z,2.35
2022-10-09T18:03:59.526Z,4.13
2022-10-09T18:06:28.580Z,3.50
2022-10-09T18:08:58.013Z,3.58
2022-10-09T18:11:28.486Z,3.78
2022-10-09T18:13:58.842Z,3.38
2022-10-09T18:16:35.693Z,2.70
2022-10-09T18:19:06.438Z,3.05
2022-10-09T18:21:35.468Z,4.25
2022-10-09T18:24:03.914Z,3.40
2022-10-09T18:26:32.317Z,2.40
2022-10-09T18:29:01.987Z,4.22
2022-10-09T18:31:31.137Z,5.95
2022-10-09T18:34:00.246Z,4.07
2022-10-09T18:36:33.624Z,3.65
2022-10-09T18:39:04.453Z,7.22
2022-10-09T18:41:33.154Z,3.53
2022-10-09T18:44:03.831Z,4.60
2022-10-09T18:46:37.044Z,4.75
2022-10-09T18:49:09.700Z,8.80
2022-10-09T18:51:39.307Z,5.38
2022-10-09T18:54:08.295Z,7.03
2022-10-09T18:56:37.903Z,5.28
2022-10-09T18:59:11.636Z,6.68
2022-10-09T19:01:39.915Z,4.97
2022-10-09T19:04:08.206Z,6.28
2022-10-09T19:06:36.853Z,6.45
2022-10-09T19:09:05.500Z,4.97
2022-10-09T19:11:34.921Z,4.22
2022-10-09T19:14:03.795Z,9.90
2022-10-09T19:16:35.291Z,3.95
2022-10-09T19:19:03.983Z,5.47
2022-10-09T19:21:32.433Z,3.40
2022-10-09T19:24:03.468Z,4.90
2022-10-09T19:26:32.812Z,5.13
2022-10-09T19:29:01.430Z,6.80
2022-10-09T19:31:29.721Z,4.80
2022-10-09T19:34:00.682Z,9.23
2022-10-09T19:36:33.165Z,14.63
2022-10-09T19:39:01.750Z,15.77
2022-10-09T19:41:29.986Z,10.60
2022-10-09T19:43:59.315Z,6.78
2022-10-09T19:46:28.287Z,5.18
2022-10-09T19:48:56.620Z,6.88
2022-10-09T19:51:27.873Z,6.22
2022-10-09T19:53:58.930Z,7.82
2022-10-09T19:56:29.000Z,5.07
2022-10-09T19:58:58.142Z,5.05
2022-10-09T20:01:27.776Z,7.75
2022-10-09T20:03:57.972Z,4.85
2022-10-09T20:06:28.513Z,7.38
2022-10-09T20:08:57.183Z,7.05
2022-10-09T20:11:27.517Z,4.28
2022-10-09T20:13:56.604Z,6.45
2022-10-09T20:16:25.549Z,5.10
2022-10-09T20:18:55.353Z,8.48
2022-10-09T20:21:23.692Z,8.23
2022-10-09T20:23:53.671Z,4.40
2022-10-09T20:26:22.795Z,3.35
2022-10-09T20:28:53.751Z,4.45
2022-10-09T20:31:24.187Z,3.15
2022-10-09T20:33:53.325Z,5.43
2022-10-09T20:36:23.518Z,4.60
2022-10-09T20:38:54.809Z,6.80
2022-10-09T20:41:23.352Z,3.67
2022-10-09T20:43:52.979Z,5.00
2022-10-09T20:46:23.601Z,5.22
2022-10-09T20:48:53.005Z,3.58
2022-10-09T20:51:22.403Z,4.80
2022-10-09T20:53:55.836Z,4.85
2022-10-09T20:56:25.477Z,4.65
2022-10-09T20:58:54.628Z,2.92
2022-10-09T21:01:23.331Z,2.95
2022-10-09T21:03:52.014Z,3.35
2022-10-09T21:06:22.478Z,2.63
2022-10-09T21:08:50.890Z,3.22
2022-10-09T21:11:21.340Z,3.45
2022-10-09T21:13:50.791Z,2.53
2022-10-09T21:16:21.550Z,4.20
2022-10-09T21:18:53.564Z,2.92
2022-10-09T21:21:21.783Z,3.35
2022-10-09T21:23:52.154Z,4.60
2022-10-09T21:26:23.112Z,8.30
2022-10-09T21:28:56.769Z,4.47
2022-10-09T21:31:29.226Z,3.03
2022-10-09T21:33:57.748Z,2.97
2022-10-09T21:36:36.062Z,3.10
2022-10-09T21:39:05.779Z,4.47
2022-10-09T21:41:36.032Z,2.72
2022-10-09T21:44:04.586Z,2.65
2022-10-09T21:46:33.420Z,3.97
2022-10-09T21:49:06.771Z,6.78
2022-10-09T21:51:35.820Z,4.30
2022-10-09T21:54:04.030Z,5.40
2022-10-09T21:56:32.348Z,4.82
2022-10-09T21:59:02.091Z,3.50
2022-10-09T22:01:30.460Z,2.67
2022-10-09T22:03:58.777Z,3.30
2022-10-09T22:06:27.709Z,7.32
2022-10-09T22:08:56.005Z,3.53
2022-10-09T22:11:24.262Z,4.28
2022-10-09T22:13:52.512Z,4.88
2022-10-09T22:16:22.199Z,2.50
2022-10-09T22:18:50.484Z,2.95
2022-10-09T22:21:19.100Z,2.85
2022-10-09T22:23:47.396Z,6.05
2022-10-09T22:26:17.795Z,2.53
2022-10-09T22:28:47.087Z,2.85
2022-10-09T22:31:17.499Z,2.75
2022-10-09T22:33:51.729Z,3.10
2022-10-09T22:36:22.087Z,2.78
2022-10-09T22:38:50.514Z,4.00
2022-10-09T22:41:21.151Z,4.68
2022-10-09T22:43:51.521Z,2.25
2022-10-09T22:46:21.860Z,2.50
2022-10-09T22:48:51.889Z,3.05
2022-10-09T22:51:22.199Z,4.85
2022-10-09T22:53:51.008Z,6.20
2022-10-09T22:56:21.375Z,3.88
2022-10-09T22:58:51.755Z,3.05
2022-10-09T23:01:24.496Z,2.50
2022-10-09T23:03:54.128Z,3.25
2022-10-09T23:06:22.364Z,3.75
2022-10-09T23:08:51.244Z,2.65
2022-10-09T23:11:21.587Z,3.53
2022-10-09T23:13:54.808Z,2.70
2022-10-09T23:16:23.247Z,3.75
2022-10-09T23:18:53.140Z,3.97
2022-10-09T23:21:23.620Z,3.08
2022-10-09T23:23:52.295Z,4.35
2022-10-09T23:26:22.271Z,2.00
2022-10-09T23:28:51.343Z,3.15
2022-10-09T23:31:19.841Z,6.15
2022-10-09T23:33:48.651Z,4.40
2022-10-09T23:36:20.623Z,4.85
2022-10-09T23:38:49.495Z,2.83
2022-10-09T23:41:19.851Z,9.55
2022-10-09T23:43:48.983Z,6.53
2022-10-09T23:46:19.869Z,2.40
2022-10-09T23:48:49.105Z,3.95
2022-10-09T23:51:20.716Z,4.00
2022-10-09T23:53:48.993Z,3.38
2022-10-09T23:56:19.219Z,4.55
2022-10-09T23:58:47.923Z,2.70
